Time;durP1;ratioP1;P1;durP2;ratioP2;P2;SDS_P1;SDS_P2;PMS_P1;PMS_P2;Temp;Humidity;BMP_temperature;BMP_pressure;BME280_temperature;BME280_humidity;BME280_pressure;Samples;Min_cycle;Max_cycle;Signal;HPM_P1;HPM_P2
2022/10/28 00:00:03;;;;;;;1.75;0.75;;;14.90;99.90;;;;;;5052339;28;20048;-72
2022/10/28 00:02:29;;;;;;;0.10;0.10;;;14.90;99.90;;;;;;5050592;28;20099;-71
2022/10/28 00:04:54;;;;;;;0.20;0.20;;;14.90;99.90;;;;;;5050648;28;20526;-71
2022/10/28 00:07:20;;;;;;;0.10;0.10;;;14.90;99.90;;;;;;5051523;28;20151;-71
2022/10/28 00:09:46;;;;;;;0.10;0.10;;;14.90;99.90;;;;;;5052393;28;20080;-71
2022/10/28 00:12:11;;;;;;;0.38;0.38;;;14.90;99.90;;;;;;5051599;28;20041;-70
2022/10/28 00:14:37;;;;;;;0.10;0.10;;;14.90;99.90;;;;;;5051148;28;20053;-71
2022/10/28 00:17:03;;;;;;;0.73;0.73;;;14.90;99.90;;;;;;5050991;28;20036;-71
2022/10/28 00:19:29;;;;;;;0.13;0.13;;;15.00;99.90;;;;;;5068993;28;20078;-71
2022/10/28 00:21:54;;;;;;;0.52;0.52;;;14.90;99.90;;;;;;5071629;28;20044;-71
2022/10/28 00:24:20;;;;;;;0.63;0.63;;;14.90;99.90;;;;;;5071759;28;20052;-71
2022/10/28 00:26:46;;;;;;;1.85;1.48;;;14.90;99.90;;;;;;5071949;28;20048;-71
2022/10/28 00:29:17;;;;;;;0.80;0.80;;;14.90;99.90;;;;;;5049120;28;20045;-70
2022/10/28 00:31:43;;;;;;;0.08;0.08;;;14.90;99.90;;;;;;5051849;28;20396;-71
2022/10/28 00:34:15;;;;;;;0.50;0.50;;;14.90;99.90;;;;;;5052089;28;20484;-71
2022/10/28 00:36:43;;;;;;;0.15;0.15;;;14.80;99.90;;;;;;5063889;28;20079;-71
2022/10/28 00:39:15;;;;;;;0.17;0.17;;;14.70;99.90;;;;;;5052921;28;20075;-71
2022/10/28 00:41:44;;;;;;;2.08;1.30;;;14.70;99.90;;;;;;5069483;28;20127;-71
2022/10/28 00:44:47;;;;;;;0.08;0.08;;;14.70;99.90;;;;;;5050860;28;20044;-71
2022/10/28 00:47:43;;;;;;;0.52;0.50;;;14.70;99.90;;;;;;5069305;28;20044;-71
2022/10/28 00:50:27;;;;;;;0.08;0.08;;;14.70;99.90;;;;;;5071684;28;20072;-71
2022/10/28 00:52:59;;;;;;;0.20;0.20;;;14.70;99.90;;;;;;5060104;28;20045;-72
2022/10/28 00:55:26;;;;;;;0.10;0.10;;;14.70;99.90;;;;;;5050286;28;20041;-71
2022/10/28 00:57:56;;;;;;;0.28;0.28;;;14.70;99.90;;;;;;5054952;28;20059;-71
2022/10/28 01:00:24;;;;;;;0.52;0.32;;;14.70;99.90;;;;;;5051286;28;20045;-71
2022/10/28 01:02:50;;;;;;;0.20;0.20;;;14.70;99.90;;;;;;5035238;28;20548;-71
2022/10/28 01:05:21;;;;;;;0.20;0.20;;;14.60;99.90;;;;;;5070521;28;20832;-70
2022/10/28 01:07:48;;;;;;;0.17;0.17;;;14.60;99.90;;;;;;5071147;28;20044;-71
2022/10/28 01:10:14;;;;;;;0.40;0.40;;;14.50;99.90;;;;;;5069728;28;20056;-71
2022/10/28 01:13:06;;;;;;;5.93;1.00;;;14.60;99.90;;;;;;5071297;28;20044;-71
2022/10/28 01:15:49;;;;;;;0.30;0.30;;;14.50;99.90;;;;;;5069531;28;20503;-71
2022/10/28 01:18:34;;;;;;;0.13;0.13;;;14.60;99.90;;;;;;5070190;28;20068;-71
2022/10/28 01:21:22;;;;;;;0.50;0.50;;;14.50;99.90;;;;;;5069637;28;20805;-71
2022/10/28 01:24:02;;;;;;;0.10;0.10;;;14.50;99.90;;;;;;5061317;28;20048;-71
2022/10/28 01:27:00;;;;;;;0.35;0.35;;;14.50;99.90;;;;;;5051077;28;20061;-71
2022/10/28 01:29:43;;;;;;;0.30;0.30;;;14.50;99.90;;;;;;5060281;28;20059;-71
2022/10/28 01:32:46;;;;;;;0.85;0.63;;;14.60;99.90;;;;;;5070551;28;20112;-71
2022/10/28 01:35:25;;;;;;;1.10;1.10;;;14.70;99.90;;;;;;5069812;28;20068;-71
2022/10/28 01:38:13;;;;;;;0.35;0.28;;;14.70;99.90;;;;;;5069524;28;20040;-71
2022/10/28 01:40:51;;;;;;;0.20;0.20;;;14.70;99.90;;;;;;5051855;28;20083;-72
2022/10/28 01:43:16;;;;;;;10.13;3.60;;;14.70;99.90;;;;;;5069528;28;20036;-72
2022/10/28 01:46:03;;;;;;;0.43;0.43;;;14.60;99.90;;;;;;5037102;28;20036;-71
2022/10/28 01:48:36;;;;;;;0.20;0.20;;;14.60;99.90;;;;;;5064396;28;20051;-70
2022/10/28 01:51:12;;;;;;;0.22;0.22;;;14.60;99.90;;;;;;5064279;28;20540;-71
2022/10/28 01:53:43;;;;;;;0.32;0.32;;;14.50;99.90;;;;;;5046291;28;20142;-71
2022/10/28 01:56:14;;;;;;;0.22;0.22;;;14.50;99.90;;;;;;5057511;28;20037;-71
2022/10/28 01:58:44;;;;;;;0.20;0.20;;;14.40;99.90;;;;;;5043201;28;20129;-71
2022/10/28 02:01:10;;;;;;;0.10;0.10;;;14.40;99.90;;;;;;5052054;28;20040;-71
2022/10/28 02:03:37;;;;;;;3.20;1.02;;;14.50;99.90;;;;;;5071046;28;20091;-71
2022/10/28 02:06:05;;;;;;;0.10;0.10;;;14.50;99.90;;;;;;5069689;28;20056;-71
2022/10/28 02:09:03;;;;;;;0.10;0.10;;;14.60;99.90;;;;;;5050430;28;20041;-71
2022/10/28 02:11:50;;;;;;;0.25;0.25;;;14.50;99.90;;;;;;5054401;28;20174;-71
2022/10/28 02:14:47;;;;;;;0.63;0.63;;;14.60;99.90;;;;;;5070156;28;20036;-71
2022/10/28 02:17:20;;;;;;;;;;;14.60;99.90;;;;;;5071128;28;20063;-71
2022/10/28 02:20:00;;;;;;;1.23;1.13;;;14.50;99.90;;;;;;5063551;28;19968;-70
2022/10/28 02:22:43;;;;;;;0.10;0.10;;;14.50;99.90;;;;;;5053986;28;20554;-71
2022/10/28 02:25:19;;;;;;;1.90;0.70;;;14.50;99.90;;;;;;5067029;28;20136;-70
2022/10/28 02:28:11;;;;;;;0.30;0.30;;;14.60;99.90;;;;;;5051771;28;20137;-71
2022/10/28 02:31:01;;;;;;;0.10;0.10;;;14.50;99.90;;;;;;5068883;28;20040;-71
2022/10/28 02:33:33;;;;;;;1.33;1.23;;;14.50;99.90;;;;;;5050022;28;20139;-71
2022/10/28 02:36:15;;;;;;;0.17;0.17;;;14.50;99.90;;;;;;5049913;28;20037;-71
2022/10/28 02:38:44;;;;;;;0.43;0.43;;;14.60;99.90;;;;;;5050174;28;20037;-71
2022/10/28 02:41:22;;;;;;;0.00;0.00;;;14.50;99.90;;;;;;5064936;28;20033;-71
2022/10/28 02:43:54;;;;;;;0.08;0.08;;;14.50;99.90;;;;;;5069884;28;20115;-71
2022/10/28 02:46:22;;;;;;;0.45;0.32;;;14.50;99.90;;;;;;5065909;28;20040;-71
2022/10/28 02:48:52;;;;;;;0.80;0.75;;;14.40;99.90;;;;;;5049669;28;20049;-71
2022/10/28 02:51:23;;;;;;;0.32;0.32;;;14.40;99.90;;;;;;5069933;28;20050;-71
2022/10/28 02:54:01;;;;;;;1.00;0.95;;;14.40;99.90;;;;;;5067913;28;20044;-71
2022/10/28 02:56:31;;;;;;;0.10;0.10;;;14.30;99.90;;;;;;5065842;28;20040;-71
2022/10/28 02:58:57;;;;;;;0.25;0.25;;;14.30;99.90;;;;;;5068650;28;20127;-70
2022/10/28 03:01:23;;;;;;;0.20;0.20;;;14.30;99.90;;;;;;5073142;28;20147;-72
2022/10/28 03:03:48;;;;;;;0.35;0.35;;;14.30;99.90;;;;;;5050842;28;20045;-71
2022/10/28 03:06:14;;;;;;;0.40;0.40;;;14.30;99.90;;;;;;5053601;28;20080;-71
2022/10/28 03:08:40;;;;;;;0.10;0.10;;;14.30;99.90;;;;;;5036018;28;20059;-71
2022/10/28 03:11:05;;;;;;;0.30;0.30;;;14.30;99.90;;;;;;5065731;28;20556;-71
2022/10/28 03:13:31;;;;;;;3.45;0.50;;;14.30;99.90;;;;;;5073811;28;20131;-72
2022/10/28 03:15:56;;;;;;;0.10;0.10;;;14.20;99.90;;;;;;5068533;28;20396;-71
2022/10/28 03:18:22;;;;;;;0.32;0.32;;;14.20;99.90;;;;;;5035178;28;20075;-71
2022/10/28 03:20:48;;;;;;;0.20;0.20;;;14.10;99.90;;;;;;5053551;28;20407;-71
2022/10/28 03:23:13;;;;;;;0.68;0.68;;;14.20;99.90;;;;;;5055960;28;20041;-71
2022/10/28 03:25:39;;;;;;;0.10;0.10;;;14.20;99.90;;;;;;5053180;28;20039;-71
2022/10/28 03:28:04;;;;;;;0.10;0.10;;;14.10;99.90;;;;;;5073458;28;20048;-70
2022/10/28 03:30:30;;;;;;;0.10;0.10;;;14.10;99.90;;;;;;5072071;28;20045;-71
2022/10/28 03:32:56;;;;;;;0.30;0.30;;;14.10;99.90;;;;;;5072103;28;20051;-71
2022/10/28 03:35:21;;;;;;;1.48;0.30;;;14.20;99.90;;;;;;5067643;28;20072;-71
2022/10/28 03:37:47;;;;;;;0.28;0.28;;;14.10;99.90;;;;;;5052649;28;20395;-71
2022/10/28 03:40:13;;;;;;;0.32;0.32;;;14.10;99.90;;;;;;5035686;28;20408;-71
2022/10/28 03:42:44;;;;;;;2.15;1.00;;;14.10;99.90;;;;;;5054030;28;20049;-71
2022/10/28 03:45:13;;;;;;;0.25;0.25;;;14.20;99.90;;;;;;5057058;28;20049;-71
2022/10/28 03:47:39;;;;;;;0.82;0.82;;;14.20;99.90;;;;;;5034762;28;20037;-71
2022/10/28 03:50:05;;;;;;;0.35;0.35;;;14.20;99.90;;;;;;5053253;28;20047;-71
2022/10/28 03:52:30;;;;;;;0.10;0.10;;;14.20;99.90;;;;;;5053830;28;20153;-71
2022/10/28 03:54:56;;;;;;;1.20;0.80;;;14.20;99.90;;;;;;5072803;28;20479;-71
2022/10/28 03:57:22;;;;;;;0.10;0.10;;;14.20;99.90;;;;;;5072450;28;20190;-71
2022/10/28 03:59:50;;;;;;;0.40;0.40;;;14.10;99.90;;;;;;5072098;28;20044;-71
2022/10/28 04:02:16;;;;;;;0.25;0.25;;;14.10;99.90;;;;;;5058991;28;20056;-71
2022/10/28 04:04:42;;;;;;;0.20;0.20;;;14.10;99.90;;;;;;5052425;28;20442;-70
2022/10/28 04:07:07;;;;;;;0.30;0.30;;;14.00;99.90;;;;;;5052584;28;20037;-71
2022/10/28 04:09:35;;;;;;;0.17;0.17;;;14.00;99.90;;;;;;5068360;28;20056;-71
2022/10/28 04:12:01;;;;;;;0.10;0.10;;;14.00;99.90;;;;;;5035264;28;20047;-71
2022/10/28 04:14:27;;;;;;;0.22;0.22;;;14.00;99.90;;;;;;5033619;28;20040;-71
2022/10/28 04:16:52;;;;;;;1.00;0.88;;;14.00;99.90;;;;;;5046342;28;20049;-70
2022/10/28 04:19:18;;;;;;;0.13;0.13;;;14.00;99.90;;;;;;5052186;28;20052;-71
2022/10/28 04:21:43;;;;;;;0.30;0.30;;;14.00;99.90;;;;;;5068737;28;20037;-71
2022/10/28 04:24:12;;;;;;;1.02;0.70;;;14.00;99.90;;;;;;5069407;28;20041;-71
2022/10/28 04:26:37;;;;;;;0.15;0.15;;;14.00;99.90;;;;;;5071707;28;20050;-71
2022/10/28 04:29:03;;;;;;;0.10;0.10;;;14.00;99.90;;;;;;5059038;28;20044;-72
2022/10/28 04:31:28;;;;;;;10.00;1.35;;;14.00;99.90;;;;;;5051758;28;20049;-70
2022/10/28 04:33:54;;;;;;;0.13;0.13;;;13.90;99.90;;;;;;5051734;28;20127;-71
2022/10/28 04:36:20;;;;;;;0.20;0.20;;;14.00;99.90;;;;;;5052001;28;20454;-70
2022/10/28 04:38:45;;;;;;;0.20;0.20;;;14.00;99.90;;;;;;5063249;28;20047;-71
2022/10/28 04:41:13;;;;;;;0.10;0.10;;;14.00;99.90;;;;;;5055189;28;20076;-71
2022/10/28 04:43:39;;;;;;;0.30;0.30;;;14.00;99.90;;;;;;5063283;28;20518;-71
2022/10/28 04:46:07;;;;;;;1.38;1.27;;;13.90;99.90;;;;;;5051913;28;20041;-71
2022/10/28 04:48:36;;;;;;;0.40;0.40;;;14.00;99.90;;;;;;5051517;28;20041;-71
2022/10/28 04:51:05;;;;;;;0.45;0.45;;;14.00;99.90;;;;;;5051652;28;20045;-71
2022/10/28 04:53:31;;;;;;;0.10;0.10;;;13.90;99.90;;;;;;5051828;28;20098;-71
2022/10/28 04:55:57;;;;;;;0.10;0.10;;;13.90;99.90;;;;;;5071415;28;20581;-71
2022/10/28 04:58:24;;;;;;;0.20;0.20;;;13.90;99.90;;;;;;5060487;28;20041;-71
2022/10/28 05:00:50;;;;;;;0.40;0.30;;;13.90;99.90;;;;;;5051263;28;20084;-71
2022/10/28 05:03:15;;;;;;;0.20;0.20;;;13.90;99.90;;;;;;5051014;28;20080;-71
2022/10/28 05:05:41;;;;;;;2.03;0.40;;;13.90;99.90;;;;;;5051556;28;20450;-71
2022/10/28 05:08:07;;;;;;;0.40;0.32;;;13.90;99.90;;;;;;5059350;28;20606;-71
2022/10/28 05:10:32;;;;;;;0.10;0.10;;;13.90;99.90;;;;;;5044906;28;20086;-71
2022/10/28 05:12:58;;;;;;;0.50;0.50;;;13.90;99.90;;;;;;5063018;28;20044;-71
2022/10/28 05:15:25;;;;;;;0.30;0.30;;;13.90;99.90;;;;;;5070979;28;20697;-71
2022/10/28 05:17:51;;;;;;;0.20;0.20;;;13.90;99.90;;;;;;5040218;28;20465;-72
2022/10/28 05:20:20;;;;;;;0.10;0.10;;;13.90;99.90;;;;;;5050922;28;20488;-71
2022/10/28 05:22:52;;;;;;;0.10;0.10;;;13.90;99.90;;;;;;5050373;28;20037;-71
2022/10/28 05:25:18;;;;;;;0.10;0.10;;;13.90;99.90;;;;;;5054976;28;20044;-71
2022/10/28 05:27:44;;;;;;;0.55;0.55;;;13.80;99.90;;;;;;5054059;28;20056;-71
2022/10/28 05:30:11;;;;;;;0.35;0.35;;;13.80;99.90;;;;;;5050895;28;20049;-71
2022/10/28 05:32:37;;;;;;;0.63;0.63;;;13.80;99.90;;;;;;5050976;28;20111;-71
2022/10/28 05:35:03;;;;;;;0.73;0.73;;;13.90;99.90;;;;;;5034347;28;20550;-71
2022/10/28 05:37:29;;;;;;;0.10;0.10;;;13.90;99.90;;;;;;5034533;28;20492;-71
2022/10/28 05:39:55;;;;;;;0.10;0.10;;;13.80;99.90;;;;;;5050557;28;20091;-70
2022/10/28 05:42:20;;;;;;;0.17;0.17;;;13.90;99.90;;;;;;5060478;28;20036;-71
2022/10/28 05:44:46;;;;;;;0.10;0.10;;;13.90;99.90;;;;;;5050873;28;20150;-71
2022/10/28 05:47:11;;;;;;;0.08;0.08;;;13.80;99.90;;;;;;5064169;28;20412;-71
2022/10/28 05:49:37;;;;;;;1.00;0.40;;;13.80;99.90;;;;;;5050244;28;20044;-71
2022/10/28 05:52:03;;;;;;;0.20;0.20;;;13.80;99.90;;;;;;5032337;28;20041;-71
2022/10/28 05:54:29;;;;;;;0.45;0.45;;;13.80;99.90;;;;;;5051320;28;20040;-71
2022/10/28 05:56:54;;;;;;;1.40;1.17;;;13.80;99.90;;;;;;5057946;28;20037;-71
2022/10/28 05:59:20;;;;;;;0.45;0.45;;;13.90;99.90;;;;;;5049799;28;20507;-71
2022/10/28 06:01:46;;;;;;;5.63;2.72;;;13.90;99.90;;;;;;5054199;28;20047;-71
2022/10/28 06:04:11;;;;;;;0.45;0.45;;;13.90;99.90;;;;;;5046982;28;20396;-71
2022/10/28 06:06:37;;;;;;;1.23;1.13;;;13.90;99.90;;;;;;5055984;28;20047;-71
2022/10/28 06:09:03;;;;;;;0.17;0.17;;;13.80;99.90;;;;;;5050535;28;20037;-71
2022/10/28 06:11:29;;;;;;;0.10;0.10;;;13.80;99.90;;;;;;5065956;28;20044;-71
2022/10/28 06:13:54;;;;;;;0.10;0.10;;;13.80;99.90;;;;;;5055450;28;20036;-71
2022/10/28 06:16:20;;;;;;;0.17;0.17;;;13.70;99.90;;;;;;5069915;28;20044;-72
2022/10/28 06:18:46;;;;;;;0.28;0.28;;;13.70;99.90;;;;;;5045825;28;20436;-71
2022/10/28 06:21:12;;;;;;;0.10;0.10;;;13.80;99.90;;;;;;5059186;28;20040;-71
2022/10/28 06:23:37;;;;;;;0.30;0.30;;;13.70;99.90;;;;;;5065627;28;20036;-71
2022/10/28 06:26:04;;;;;;;2.72;1.00;;;13.70;99.90;;;;;;5068901;28;20040;-71
2022/10/28 06:28:31;;;;;;;3.10;0.85;;;13.70;99.90;;;;;;5069532;28;20048;-71
2022/10/28 06:31:07;;;;;;;1.30;1.10;;;13.80;99.90;;;;;;5051524;28;20045;-71
2022/10/28 06:33:34;;;;;;;0.43;0.43;;;13.80;99.90;;;;;;5064043;28;20049;-71
2022/10/28 06:36:00;;;;;;;0.32;0.32;;;13.80;99.90;;;;;;5055624;28;20093;-71
2022/10/28 06:38:27;;;;;;;0.15;0.15;;;13.80;99.90;;;;;;5057836;28;20048;-71
2022/10/28 06:40:55;;;;;;;0.47;0.47;;;13.70;99.90;;;;;;5072179;28;20044;-72
2022/10/28 06:43:21;;;;;;;0.10;0.10;;;13.70;99.90;;;;;;5070348;28;20040;-71
2022/10/28 06:45:52;;;;;;;0.10;0.10;;;13.70;99.90;;;;;;5064347;28;20040;-71
2022/10/28 06:48:18;;;;;;;0.35;0.35;;;13.70;99.90;;;;;;5065312;28;20375;-71
2022/10/28 06:50:44;;;;;;;0.08;0.08;;;13.80;99.90;;;;;;5064698;28;20044;-72
2022/10/28 06:53:09;;;;;;;0.25;0.25;;;13.80;99.90;;;;;;5065171;28;20040;-71
2022/10/28 06:55:35;;;;;;;0.30;0.30;;;13.90;99.90;;;;;;5045672;28;20045;-71
2022/10/28 06:58:01;;;;;;;0.55;0.55;;;13.80;99.90;;;;;;5061553;28;20039;-71
2022/10/28 07:00:29;;;;;;;8.57;1.30;;;13.80;99.90;;;;;;5060362;28;20131;-71
2022/10/28 07:02:54;;;;;;;2.90;0.57;;;13.90;99.90;;;;;;5056365;28;20044;-71
2022/10/28 07:05:21;;;;;;;0.88;0.60;;;13.80;99.90;;;;;;5073246;28;20127;-71
2022/10/28 07:07:47;;;;;;;0.55;0.55;;;13.90;99.90;;;;;;5062820;28;20090;-72
2022/10/28 07:10:12;;;;;;;0.20;0.20;;;13.90;99.90;;;;;;5055235;28;20037;-72
2022/10/28 07:12:38;;;;;;;0.13;0.13;;;13.90;99.90;;;;;;5067669;28;20055;-72
2022/10/28 07:15:04;;;;;;;1.95;1.75;;;14.00;99.90;;;;;;5058864;28;20068;-71
2022/10/28 07:17:30;;;;;;;11.90;2.30;;;14.10;99.90;;;;;;5053841;28;20147;-72
2022/10/28 07:19:56;;;;;;;0.88;0.57;;;14.10;99.90;;;;;;5053154;28;20060;-72
2022/10/28 07:22:21;;;;;;;0.47;0.47;;;14.10;99.90;;;;;;5052450;28;20059;-72
2022/10/28 07:24:47;;;;;;;0.20;0.20;;;14.10;99.90;;;;;;5065839;28;20040;-72
2022/10/28 07:27:13;;;;;;;4.10;1.33;;;14.20;99.90;;;;;;5054859;28;20102;-71
2022/10/28 07:29:39;;;;;;;0.25;0.25;;;14.20;99.90;;;;;;5072685;28;20048;-71
2022/10/28 07:32:04;;;;;;;0.10;0.10;;;14.20;99.90;;;;;;5040471;28;20049;-71
2022/10/28 07:34:30;;;;;;;0.10;0.10;;;14.30;99.90;;;;;;5053363;28;20056;-71
2022/10/28 07:36:56;;;;;;;3.17;0.50;;;14.30;99.90;;;;;;5060719;28;20043;-71
2022/10/28 07:39:22;;;;;;;0.57;0.57;;;14.30;99.90;;;;;;5063297;28;20123;-71
2022/10/28 07:41:47;;;;;;;1.60;1.50;;;14.40;99.90;;;;;;5070287;28;20514;-71
2022/10/28 07:44:14;;;;;;;5.63;1.48;;;14.40;99.90;;;;;;5065981;28;20160;-71
2022/10/28 07:46:40;;;;;;;0.85;0.50;;;14.50;99.90;;;;;;5068185;28;20048;-72
2022/10/28 07:49:05;;;;;;;0.75;0.75;;;14.50;99.90;;;;;;5072308;28;20491;-71
2022/10/28 07:51:31;;;;;;;1.88;0.85;;;14.50;99.90;;;;;;5055014;28;20040;-71
2022/10/28 07:53:58;;;;;;;0.22;0.20;;;14.50;99.90;;;;;;5068998;28;20437;-70
2022/10/28 07:56:24;;;;;;;0.20;0.20;;;14.60;99.90;;;;;;5055299;28;20149;-71
2022/10/28 07:58:49;;;;;;;1.25;0.90;;;14.60;99.90;;;;;;5066854;28;20054;-70
2022/10/28 08:01:17;;;;;;;0.10;0.10;;;14.60;99.90;;;;;;5046292;28;20171;-71
2022/10/28 08:03:43;;;;;;;0.40;0.40;;;14.70;99.90;;;;;;5064356;28;20055;-70
2022/10/28 08:06:14;;;;;;;0.20;0.20;;;14.70;99.90;;;;;;5065694;28;20120;-70
2022/10/28 08:08:40;;;;;;;0.10;0.10;;;14.70;99.90;;;;;;5067453;28;20037;-70
2022/10/28 08:11:18;;;;;;;0.55;0.55;;;14.80;99.90;;;;;;5062985;28;20048;-70
2022/10/28 08:13:46;;;;;;;0.25;0.25;;;14.90;99.90;;;;;;5061468;28;20056;-71
2022/10/28 08:16:12;;;;;;;0.10;0.10;;;14.90;99.90;;;;;;5065622;28;20040;-71
2022/10/28 08:18:38;;;;;;;0.10;0.10;;;15.00;99.90;;;;;;5069375;28;20076;-72
2022/10/28 08:21:05;;;;;;;2.22;0.52;;;15.00;99.90;;;;;;5067953;28;20049;-71
2022/10/28 08:23:31;;;;;;;0.10;0.10;;;15.10;99.90;;;;;;5071416;28;20050;-71
2022/10/28 08:25:57;;;;;;;0.20;0.20;;;15.20;99.90;;;;;;5061517;28;20878;-71
2022/10/28 08:28:26;;;;;;;0.98;0.98;;;15.20;99.90;;;;;;5071726;28;20407;-71
2022/10/28 08:30:52;;;;;;;0.55;0.55;;;15.30;99.90;;;;;;5068801;28;20032;-71
2022/10/28 08:33:17;;;;;;;0.82;0.82;;;15.30;99.90;;;;;;5067117;28;20388;-71
2022/10/28 08:35:48;;;;;;;0.75;0.68;;;15.40;99.90;;;;;;5055261;28;20129;-71
2022/10/28 08:38:14;;;;;;;0.63;0.40;;;15.50;99.90;;;;;;5048775;28;20138;-71
2022/10/28 08:41:00;;;;;;;1.70;0.90;;;15.50;99.90;;;;;;5070592;28;20519;-72
2022/10/28 08:43:39;;;;;;;1.50;0.73;;;15.50;99.90;;;;;;5071520;28;20113;-71
2022/10/28 08:46:36;;;;;;;1.60;1.40;;;15.50;99.90;;;;;;5069614;28;20063;-71
2022/10/28 08:49:11;;;;;;;0.20;0.20;;;15.60;99.90;;;;;;5069447;28;20032;-70
2022/10/28 08:51:44;;;;;;;0.20;0.20;;;15.60;99.90;;;;;;5062487;28;20045;-70
2022/10/28 08:54:24;;;;;;;1.42;1.30;;;15.60;99.90;;;;;;5052504;28;20044;-70
2022/10/28 08:56:59;;;;;;;0.10;0.10;;;15.60;99.90;;;;;;5070432;28;20032;-71
2022/10/28 08:59:39;;;;;;;1.65;1.33;;;15.60;99.90;;;;;;5070787;28;20059;-71
2022/10/28 09:02:21;;;;;;;0.10;0.10;;;15.50;99.90;;;;;;5062523;28;20066;-70
2022/10/28 09:05:01;;;;;;;0.25;0.25;;;15.60;99.90;;;;;;5063521;28;20550;-70
2022/10/28 09:07:26;;;;;;;0.85;0.85;;;15.60;99.90;;;;;;5062688;28;20043;-71
2022/10/28 09:09:53;;;;;;;0.98;0.90;;;15.60;99.90;;;;;;5054722;28;20048;-70
2022/10/28 09:12:40;;;;;;;1.25;0.90;;;15.60;99.90;;;;;;5051220;28;20044;-71
2022/10/28 09:15:44;;;;;;;0.10;0.10;;;15.60;99.90;;;;;;5071378;28;20045;-70
2022/10/28 09:18:51;;;;;;;0.47;0.47;;;15.70;99.90;;;;;;5062209;28;20061;-70
2022/10/28 09:21:29;;;;;;;0.30;0.30;;;15.70;99.90;;;;;;5038873;28;20052;-70
2022/10/28 09:23:57;;;;;;;1.33;1.25;;;15.70;99.90;;;;;;5070375;28;20458;-71
2022/10/28 09:26:34;;;;;;;0.20;0.20;;;15.80;99.90;;;;;;5067875;28;20040;-71
2022/10/28 09:29:33;;;;;;;1.27;0.90;;;15.80;99.90;;;;;;5064406;28;20166;-70
2022/10/28 09:32:19;;;;;;;0.20;0.20;;;15.80;99.90;;;;;;5069100;28;20391;-70
2022/10/28 09:35:00;;;;;;;0.43;0.43;;;15.90;99.90;;;;;;5065647;28;20048;-70
2022/10/28 09:37:49;;;;;;;0.28;0.22;;;15.90;99.90;;;;;;5061758;28;20052;-71
2022/10/28 09:40:23;;;;;;;1.42;1.27;;;16.00;99.90;;;;;;5067623;28;20099;-70
2022/10/28 09:43:08;;;;;;;2.92;1.55;;;16.00;99.90;;;;;;5070527;28;20055;-70
2022/10/28 09:45:39;;;;;;;0.10;0.10;;;16.10;99.90;;;;;;5032496;28;20053;-70
2022/10/28 09:48:21;;;;;;;0.75;0.43;;;16.10;99.90;;;;;;5062178;28;20495;-70
2022/10/28 09:50:50;;;;;;;0.10;0.10;;;16.20;99.90;;;;;;5068200;28;20068;-70
2022/10/28 09:53:28;;;;;;;0.20;0.20;;;16.20;99.90;;;;;;5070663;28;20121;-71
2022/10/28 09:55:55;;;;;;;0.10;0.10;;;16.20;99.90;;;;;;5069395;28;20044;-70
2022/10/28 09:58:21;;;;;;;0.40;0.30;;;16.30;99.90;;;;;;5051499;28;20057;-71
2022/10/28 10:00:47;;;;;;;0.73;0.57;;;16.40;99.90;;;;;;5050547;28;20131;-71
2022/10/28 10:03:15;;;;;;;4.68;0.35;;;16.40;99.90;;;;;;5050822;28;20619;-71
2022/10/28 10:05:46;;;;;;;1.05;1.02;;;16.50;99.90;;;;;;5064531;28;20045;-70
2022/10/28 10:08:15;;;;;;;0.28;0.28;;;16.60;99.90;;;;;;5052508;28;20425;-70
2022/10/28 10:10:55;;;;;;;0.17;0.17;;;16.70;99.90;;;;;;5058610;28;20060;-70
2022/10/28 10:13:26;;;;;;;0.20;0.20;;;16.70;99.90;;;;;;5051373;28;20045;-70
2022/10/28 10:15:59;;;;;;;0.10;0.10;;;16.80;99.90;;;;;;5049766;28;20515;-71
2022/10/28 10:18:33;;;;;;;8.48;1.00;;;16.80;99.90;;;;;;5053146;28;20057;-71
2022/10/28 10:21:00;;;;;;;0.20;0.20;;;16.90;99.90;;;;;;5043321;28;20575;-71
2022/10/28 10:23:27;;;;;;;1.35;0.38;;;17.00;99.90;;;;;;5047837;28;20123;-71
2022/10/28 10:26:04;;;;;;;1.60;1.50;;;17.00;99.90;;;;;;5058133;28;20075;-70
2022/10/28 10:28:31;;;;;;;0.70;0.70;;;17.00;99.90;;;;;;5059697;28;20106;-71
2022/10/28 10:31:00;;;;;;;0.68;0.68;;;17.10;99.90;;;;;;5063764;28;20037;-71
2022/10/28 10:33:36;;;;;;;1.10;0.68;;;17.10;99.90;;;;;;5045157;28;20037;-71
2022/10/28 10:36:27;;;;;;;0.68;0.63;;;17.10;99.90;;;;;;5056097;28;20076;-71
2022/10/28 10:38:58;;;;;;;0.65;0.65;;;17.10;99.90;;;;;;5050021;28;20045;-69
2022/10/28 10:41:42;;;;;;;2.03;1.38;;;17.20;99.90;;;;;;5031546;28;20472;-70
2022/10/28 10:44:20;;;;;;;0.20;0.20;;;17.20;99.90;;;;;;5059049;28;20040;-70
2022/10/28 10:47:05;;;;;;;0.28;0.28;;;17.30;99.90;;;;;;5049839;28;20082;-70
2022/10/28 10:49:31;;;;;;;1.60;1.33;;;17.40;99.90;;;;;;5053946;28;20480;-71
2022/10/28 10:51:59;;;;;;;1.48;1.08;;;17.50;99.90;;;;;;5067177;28;20040;-70
2022/10/28 10:54:28;;;;;;;1.15;1.05;;;17.60;99.90;;;;;;5062181;28;20132;-70
2022/10/28 10:57:05;;;;;;;1.17;1.05;;;17.70;99.90;;;;;;5055885;28;20085;-71
2022/10/28 10:59:31;;;;;;;0.10;0.10;;;17.70;99.90;;;;;;5060903;28;20094;-70
2022/10/28 11:01:57;;;;;;;0.22;0.22;;;17.80;99.90;;;;;;5050664;28;20045;-70
2022/10/28 11:04:25;;;;;;;0.68;0.68;;;17.90;99.90;;;;;;5056050;28;20668;-70
2022/10/28 11:06:54;;;;;;;0.20;0.20;;;18.00;99.90;;;;;;5060361;28;20045;-70
2022/10/28 11:09:28;;;;;;;0.13;0.13;;;18.00;99.90;;;;;;5056016;28;20060;-70
2022/10/28 11:11:56;;;;;;;0.57;0.40;;;18.00;99.90;;;;;;5055347;28;20071;-70
2022/10/28 11:14:31;;;;;;;0.65;0.63;;;18.10;99.90;;;;;;5049394;28;20128;-71
2022/10/28 11:16:58;;;;;;;0.32;0.32;;;18.10;99.90;;;;;;5048149;28;20052;-71
2022/10/28 11:19:31;;;;;;;2.40;1.85;;;18.10;99.90;;;;;;5051901;28;20060;-71
2022/10/28 11:22:15;;;;;;;0.10;0.10;;;18.10;99.90;;;;;;5059501;28;21007;-71
2022/10/28 11:25:18;;;;;;;0.10;0.10;;;18.20;99.90;;;;;;5062407;28;20051;-71
2022/10/28 11:27:47;;;;;;;0.27;0.27;;;18.30;99.90;;;;;;5052761;28;20388;-71
2022/10/28 11:30:16;;;;;;;1.10;0.28;;;18.50;99.90;;;;;;5052887;28;20092;-71
2022/10/28 11:32:51;;;;;;;0.03;0.03;;;18.60;99.90;;;;;;5052742;28;20064;-71
2022/10/28 11:35:47;;;;;;;0.45;0.45;;;18.60;99.90;;;;;;5046967;28;20060;-71
2022/10/28 11:38:38;;;;;;;0.50;0.47;;;18.60;99.90;;;;;;5050007;28;20539;-71
2022/10/28 11:41:16;;;;;;;2.83;1.55;;;18.80;99.90;;;;;;5063987;28;20465;-71
2022/10/28 11:43:58;;;;;;;0.20;0.20;;;18.80;99.90;;;;;;5058803;28;20037;-71
2022/10/28 11:46:42;;;;;;;0.20;0.20;;;18.80;99.90;;;;;;5037220;28;20550;-71
2022/10/28 11:49:20;;;;;;;;;;;18.80;99.90;;;;;;5065391;28;20090;-71
2022/10/28 11:51:59;;;;;;;0.30;0.30;;;18.80;99.90;;;;;;5036161;28;20288;-71
2022/10/28 11:54:29;;;;;;;0.22;0.22;;;18.80;99.90;;;;;;5052129;28;20492;-71
2022/10/28 11:57:12;;;;;;;0.57;0.57;;;18.70;99.90;;;;;;5055799;28;20041;-72
2022/10/28 12:00:02;;;;;;;0.10;0.10;;;18.60;99.90;;;;;;5044271;28;20423;-71
2022/10/28 12:03:02;;;;;;;0.90;0.38;;;18.60;99.90;;;;;;5068141;28;20048;-71
2022/10/28 12:05:50;;;;;;;0.55;0.55;;;18.50;99.90;;;;;;5058880;28;20041;-70
2022/10/28 12:08:43;;;;;;;0.70;0.70;;;18.50;99.90;;;;;;5060490;28;20391;-70
2022/10/28 12:11:36;;;;;;;0.00;0.00;;;18.50;99.90;;;;;;5051007;28;20048;-70
2022/10/28 12:14:08;;;;;;;0.08;0.08;;;18.50;99.90;;;;;;5059854;28;20071;-70
2022/10/28 12:17:08;;;;;;;0.38;0.38;;;18.50;99.90;;;;;;5068449;28;20044;-69
2022/10/28 12:19:43;;;;;;;2.65;1.30;;;18.60;99.90;;;;;;5020817;28;20099;-70
2022/10/28 12:22:12;;;;;;;0.25;0.25;;;18.70;99.90;;;;;;5069401;28;20043;-70
2022/10/28 12:24:44;;;;;;;1.02;0.70;;;18.80;99.90;;;;;;5042505;28;20455;-70
2022/10/28 12:27:28;;;;;;;0.52;0.52;;;18.90;99.90;;;;;;5060573;28;20045;-70
2022/10/28 12:30:00;;;;;;;0.60;0.60;;;19.00;99.90;;;;;;5056551;28;20048;-70
2022/10/28 12:32:33;;;;;;;0.10;0.10;;;19.00;99.90;;;;;;5063636;28;20547;-70
2022/10/28 12:35:03;;;;;;;3.45;2.83;;;19.00;99.90;;;;;;5071782;28;20080;-69
2022/10/28 12:37:36;;;;;;;0.98;0.90;;;19.00;99.90;;;;;;5069944;28;20102;-71
2022/10/28 12:40:32;;;;;;;0.10;0.10;;;19.00;99.90;;;;;;5069357;28;20045;-70
2022/10/28 12:43:18;;;;;;;0.80;0.80;;;19.00;99.90;;;;;;5045039;28;20047;-69
2022/10/28 12:45:47;;;;;;;0.03;0.03;;;19.10;99.90;;;;;;5038904;28;20148;-70
2022/10/28 12:48:22;;;;;;;1.13;1.02;;;19.10;99.90;;;;;;5052411;28;20088;-69
2022/10/28 12:51:00;;;;;;;1.95;0.55;;;19.20;99.90;;;;;;5069460;28;20044;-69
2022/10/28 12:53:47;;;;;;;0.57;0.57;;;19.20;99.90;;;;;;5051657;28;20060;-70
2022/10/28 12:56:28;;;;;;;0.68;0.68;;;19.10;99.90;;;;;;5065947;28;20037;-70
2022/10/28 12:59:23;;;;;;;0.35;0.35;;;19.10;99.90;;;;;;5070497;28;20519;-69
2022/10/28 13:01:49;;;;;;;0.30;0.30;;;19.10;99.90;;;;;;5057268;28;20052;-70
2022/10/28 13:04:15;;;;;;;10.95;2.75;;;19.00;99.90;;;;;;5053405;28;20033;-71
2022/10/28 13:07:05;;;;;;;0.45;0.45;;;19.10;99.90;;;;;;5050258;28;20541;-71
2022/10/28 13:09:50;;;;;;;0.30;0.30;;;19.00;99.90;;;;;;5065278;28;20044;-70
2022/10/28 13:12:33;;;;;;;1.10;1.10;;;19.00;99.90;;;;;;5062725;28;20094;-70